Coupeville, WA (98239)

9:22 PM PDT on July 31, 2015 (GMT -0700)
Coupeville | | Change Station
CLOSE
Current Station
Personal Weather Station
Location: Coupeville, WA
Elevation: 95 ft
Nearby Weather Stations

Elev 95 ft 48.22 °N, 122.69 °W | Updated 5 seconds ago

Partly Cloudy
Partly Cloudy
64.5 °F
Feels Like 64.5 °F
N
10.4
Wind Variable Wind from West
Gusts 10.4 mph

Today
High -- | Low -- °F
--% Chance of Precip.
Yesterday
High -- | Low -- °F
Precip. -- in
5:44 AM 8:48 PM
Full, 99% visible
Pressure 30.03 in
Visibility 10.0 miles
Clouds Few 10000 ft
Scattered Clouds 20000 ft
Dew Point 50 °F
Humidity 59%
Rainfall 0.00 in
Snow Depth Not available.
UV 0 out of 12
Pollen 4.50 out of 12
Air Quality Not available.
Flu Activity Not available.
METAR KNUW 010356Z 23006KT 10SM FEW100 SCT200 15/11 A3003 RMK AO2 SLP168 T01500106

More Conditions Fewer Conditions

Pressure 30.03 in
Visibility 10.0 miles
Clouds Few 10000 ft
Scattered Clouds 20000 ft
Dew Point 50 °F
Humidity 59%
Rainfall 0.00 in
Snow Depth Not available.
UV 0 out of 12
Pollen 4.50 out of 12
Air Quality Not available.
Flu Activity Not available.
METAR KNUW 010356Z 23006KT 10SM FEW100 SCT200 15/11 A3003 RMK AO2 SLP168 T01500106

More Conditions Fewer Conditions

10-Day Weather Forecast

×

Almanac

Astronomy

Jul. 31, 2015 Rise Set
Actual Time
Civil Twilight
Nautical Twilight
Astronomical Twilight
Moon
Length of Visible Light
Length of Day
Tomorrow will be .
, % of the Moon is Illuminated

Today's Extremes

State Highs State Lows

Community

WunderPhotos

Upload Photos

1,842,874 photos uploaded!

WunderBlogs® & News

Nearby

Air Quality

  Air Quality AQ Index Pollutant
Not available.

Snow Depth

Station Depth Elevation

Earthquake Activity

City Distance Mag. Time & Date
Minimum magnitude displayed is 2.5.

Coastal Water Temperatures

Place Temperature

Stations

Nearby Weather Stations

Station Location Temp. Windchill Dew Point Humidity Wind Precip. Elev Updated Type